No particular awareness of the weather is required.    There are no Weather-warnings


Meteo18 Weather Cam more information Meteo18 Weather Cam


Thunder radar more information blitzortung!


Rain radar more information rain snow radar


Visit our other weather sites:

Template documentation
and downloads

And another site



Weather Underground History page Text

Daily Summary for March 30, 2017 Units:  Metric    English   Both
« Previous Day
Next Day »
Daily Weekly Monthly Yearly Custom
  High: Low: Average:
Temperature: 22.9 °C 8.4 °C 15.5 °C
Dew Point: 11.2 °C 5.5 °C 7.7 °C
Humidity: 83 % 38 % 62 %
Wind Speed: 12.9 km/h 0.0 km/h 2.8 km/h
Wind Gust: 19.3 km/h - -
Wind:- - South
Pressure: 1027.3 hPa 1018.8 hPa -
Precipitation: 0.0 mm    
Historical Graphs
 
 
Tabular Data for March 30, 2017
Time Temperature Dew Point Pressure Wind Wind Speed Wind Gust Humidity Rainfall Rate (Hourly)
00:02 12.6 °C 6.6 °C 1027.3 hPa NNW 1.6 km/h 3.2 km/h 67 % 0.0 mm
00:12 12.1 °C 6.6 °C 1027.3 hPa Calm   1.6 km/h 69 % 0.0 mm
00:17 12.0 °C 6.5 °C 1027.3 hPa Calm   1.6 km/h 69 % 0.0 mm
00:22 11.8 °C 6.5 °C 1027.3 hPa Calm   1.6 km/h 70 % 0.0 mm
00:32 11.2 °C 6.3 °C 1027.3 hPa Calm     72 % 0.0 mm
00:42 11.5 °C 6.6 °C 1027.0 hPa Calm     72 % 0.0 mm
00:52 11.6 °C 6.5 °C 1027.3 hPa Calm     71 % 0.0 mm
00:57 11.4 °C 6.5 °C 1027.3 hPa Calm     72 % 0.0 mm
01:02 11.4 °C 6.3 °C 1027.0 hPa Calm     71 % 0.0 mm
01:12 11.2 °C 6.3 °C 1027.0 hPa NW 1.6 km/h 1.6 km/h 72 % 0.0 mm
01:17 11.4 °C 6.5 °C 1027.0 hPa NW 1.6 km/h 1.6 km/h 72 % 0.0 mm
01:22 11.6 °C 6.5 °C 1027.0 hPa NW 1.6 km/h 3.2 km/h 71 % 0.0 mm
01:32 11.6 °C 6.5 °C 1027.0 hPa NW 1.6 km/h 3.2 km/h 71 % 0.0 mm
01:42 11.6 °C 6.7 °C 1027.0 hPa Calm   1.6 km/h 72 % 0.0 mm
01:52 11.8 °C 6.7 °C 1027.0 hPa NNW 1.6 km/h 3.2 km/h 71 % 0.0 mm
01:57 11.7 °C 6.6 °C 1027.0 hPa Calm   3.2 km/h 71 % 0.0 mm
02:02 11.8 °C 6.7 °C 1027.0 hPa Calm   3.2 km/h 71 % 0.0 mm
02:12 11.7 °C 6.6 °C 1027.0 hPa Calm   1.6 km/h 71 % 0.0 mm
02:17 11.7 °C 6.6 °C 1027.0 hPa Calm   1.6 km/h 71 % 0.0 mm
02:22 11.6 °C 6.5 °C 1027.0 hPa NNW 3.2 km/h 3.2 km/h 71 % 0.0 mm
02:32 11.4 °C 6.3 °C 1027.0 hPa Calm   3.2 km/h 71 % 0.0 mm
02:42 11.5 °C 6.6 °C 1027.0 hPa Calm   3.2 km/h 72 % 0.0 mm
02:47 11.7 °C 6.6 °C 1026.6 hPa Calm   1.6 km/h 71 % 0.0 mm
02:52 11.6 °C 6.3 °C 1026.6 hPa Calm   1.6 km/h 70 % 0.0 mm
02:57 11.3 °C 6.4 °C 1026.6 hPa Calm   1.6 km/h 72 % 0.0 mm
03:02 11.3 °C 6.4 °C 1026.6 hPa Calm   1.6 km/h 72 % 0.0 mm
03:12 11.6 °C 6.5 °C 1026.6 hPa NNE 1.6 km/h 1.6 km/h 71 % 0.0 mm
03:17 11.7 °C 6.6 °C 1026.6 hPa NE 1.6 km/h 3.2 km/h 71 % 0.0 mm
03:22 11.9 °C 6.6 °C 1026.6 hPa Calm   3.2 km/h 70 % 0.0 mm
03:32 11.7 °C 6.2 °C 1026.3 hPa Calm   3.2 km/h 69 % 0.0 mm
03:37 11.3 °C 6.2 °C 1026.3 hPa Calm   3.2 km/h 71 % 0.0 mm
03:42 11.2 °C 6.3 °C 1026.3 hPa Calm   3.2 km/h 72 % 0.0 mm
03:47 11.2 °C 6.3 °C 1026.3 hPa North 1.6 km/h 1.6 km/h 72 % 0.0 mm
03:52 11.2 °C 6.1 °C 1026.3 hPa Calm   1.6 km/h 71 % 0.0 mm
04:02 10.9 °C 6.1 °C 1026.3 hPa Calm   1.6 km/h 72 % 0.0 mm
04:12 9.9 °C 5.9 °C 1026.3 hPa WNW 1.6 km/h 1.6 km/h 76 % 0.0 mm
04:17 9.7 °C 5.9 °C 1026.0 hPa WNW 1.6 km/h 3.2 km/h 77 % 0.0 mm
04:22 9.9 °C 6.1 °C 1026.0 hPa Calm   3.2 km/h 77 % 0.0 mm
04:27 10.2 °C 6.0 °C 1026.0 hPa Calm   3.2 km/h 75 % 0.0 mm
04:32 10.1 °C 6.1 °C 1026.0 hPa Calm   1.6 km/h 76 % 0.0 mm
04:42 10.0 °C 6.0 °C 1026.0 hPa NNW 1.6 km/h 1.6 km/h 76 % 0.0 mm
04:47 10.1 °C 5.9 °C 1026.0 hPa Calm   3.2 km/h 75 % 0.0 mm
04:52 9.8 °C 6.0 °C 1026.0 hPa NW 1.6 km/h 3.2 km/h 77 % 0.0 mm
04:57 10.0 °C 6.2 °C 1026.0 hPa NW 1.6 km/h 3.2 km/h 77 % 0.0 mm
05:02 10.3 °C 6.1 °C 1026.0 hPa Calm   3.2 km/h 75 % 0.0 mm
05:12 9.9 °C 5.9 °C 1026.0 hPa NW 1.6 km/h 1.6 km/h 76 % 0.0 mm
05:17 10.0 °C 6.0 °C 1026.0 hPa NW 1.6 km/h 1.6 km/h 76 % 0.0 mm
05:22 9.9 °C 5.9 °C 1026.0 hPa NW 1.6 km/h 1.6 km/h 76 % 0.0 mm
05:32 10.1 °C 6.1 °C 1026.0 hPa NW 1.6 km/h 1.6 km/h 76 % 0.0 mm
05:37 9.4 °C 5.6 °C 1026.0 hPa Calm   1.6 km/h 77 % 0.0 mm
05:42 8.9 °C 5.5 °C 1026.0 hPa Calm   1.6 km/h 79 % 0.0 mm
05:52 9.4 °C 5.9 °C 1025.6 hPa WNW 1.6 km/h 1.6 km/h 79 % 0.0 mm
05:57 8.8 °C 5.7 °C 1025.6 hPa WNW 1.6 km/h 1.6 km/h 81 % 0.0 mm
06:02 8.4 °C 5.5 °C 1025.6 hPa Calm   1.6 km/h 82 % 0.0 mm
06:07 8.7 °C 6.0 °C 1025.6 hPa WNW 1.6 km/h 3.2 km/h 83 % 0.0 mm
06:12 9.1 °C 5.8 °C 1025.6 hPa Calm   3.2 km/h 80 % 0.0 mm
06:17 8.9 °C 5.6 °C 1025.6 hPa Calm   1.6 km/h 80 % 0.0 mm
06:22 9.0 °C 5.9 °C 1025.6 hPa Calm   1.6 km/h 81 % 0.0 mm
06:27 9.1 °C 6.0 °C 1025.6 hPa Calm   1.6 km/h 81 % 0.0 mm
06:32 9.1 °C 5.8 °C 1025.6 hPa Calm   1.6 km/h 80 % 0.0 mm
06:37 8.9 °C 5.6 °C 1025.6 hPa Calm   1.6 km/h 80 % 0.0 mm
06:42 8.7 °C 5.6 °C 1025.6 hPa WNW 1.6 km/h 1.6 km/h 81 % 0.0 mm
06:52 8.8 °C 5.9 °C 1025.6 hPa Calm   1.6 km/h 82 % 0.0 mm
06:57 9.0 °C 5.9 °C 1025.6 hPa Calm   1.6 km/h 81 % 0.0 mm
07:02 9.2 °C 6.1 °C 1025.6 hPa Calm   1.6 km/h 81 % 0.0 mm
07:12 9.1 °C 6.0 °C 1025.6 hPa Calm     81 % 0.0 mm
07:17 9.1 °C 6.0 °C 1025.6 hPa Calm     81 % 0.0 mm
07:22 9.0 °C 5.9 °C 1025.6 hPa Calm     81 % 0.0 mm
07:32 8.7 °C 5.8 °C 1025.6 hPa Calm     82 % 0.0 mm
07:42 8.8 °C 5.9 °C 1025.6 hPa Calm     82 % 0.0 mm
07:52 9.2 °C 5.9 °C 1025.6 hPa Calm     80 % 0.0 mm
07:57 9.4 °C 6.1 °C 1025.6 hPa Calm     80 % 0.0 mm
08:02 9.2 °C 5.9 °C 1025.6 hPa Calm     80 % 0.0 mm
08:12 9.6 °C 6.3 °C 1025.6 hPa Calm   3.2 km/h 80 % 0.0 mm
08:17 9.8 °C 6.1 °C 1025.6 hPa NNE 1.6 km/h 3.2 km/h 78 % 0.0 mm
08:22 10.1 °C 6.4 °C 1025.6 hPa Calm   3.2 km/h 78 % 0.0 mm
08:32 10.4 °C 6.5 °C 1025.6 hPa Calm   1.6 km/h 77 % 0.0 mm
08:42 10.7 °C 6.6 °C 1025.6 hPa ENE 1.6 km/h 4.8 km/h 76 % 0.0 mm
08:52 10.7 °C 6.6 °C 1025.6 hPa Calm   4.8 km/h 76 % 0.0 mm
08:57 10.9 °C 6.8 °C 1025.6 hPa Calm   4.8 km/h 76 % 0.0 mm
09:02 11.2 °C 7.1 °C 1025.6 hPa Calm   4.8 km/h 76 % 0.0 mm
09:07 11.6 °C 7.3 °C 1025.6 hPa Calm   4.8 km/h 75 % 0.0 mm
09:12 11.8 °C 7.3 °C 1025.6 hPa Calm   3.2 km/h 74 % 0.0 mm
09:17 11.8 °C 7.1 °C 1025.6 hPa Calm   3.2 km/h 73 % 0.0 mm
09:22 11.9 °C 7.4 °C 1025.6 hPa East 1.6 km/h 3.2 km/h 74 % 0.0 mm
09:32 11.9 °C 7.4 °C 1025.6 hPa Calm   4.8 km/h 74 % 0.0 mm
09:42 11.9 °C 7.6 °C 1025.6 hPa SE 3.2 km/h 6.4 km/h 75 % 0.0 mm
09:52 12.7 °C 8.0 °C 1025.6 hPa SSE 3.2 km/h 8.0 km/h 73 % 0.0 mm
09:57 12.9 °C 8.2 °C 1025.6 hPa East 1.6 km/h 8.0 km/h 73 % 0.0 mm
10:02 12.8 °C 7.9 °C 1025.3 hPa Calm   4.8 km/h 72 % 0.0 mm
10:12 13.3 °C 8.6 °C 1025.3 hPa SE 3.2 km/h 6.4 km/h 73 % 0.0 mm
10:17 13.3 °C 8.4 °C 1025.3 hPa SSE 8.0 km/h 8.0 km/h 72 % 0.0 mm
10:22 13.4 °C 8.5 °C 1025.3 hPa SE 1.6 km/h 9.7 km/h 72 % 0.0 mm
10:32 14.0 °C 8.8 °C 1025.3 hPa ESE 1.6 km/h 9.7 km/h 71 % 0.0 mm
10:37 14.1 °C 8.9 °C 1025.3 hPa ESE 3.2 km/h 9.7 km/h 71 % 0.0 mm
10:42 14.4 °C 8.8 °C 1025.3 hPa SSE 6.4 km/h 9.7 km/h 69 % 0.0 mm
10:47 14.7 °C 9.1 °C 1025.3 hPa SE 4.8 km/h 9.7 km/h 69 % 0.0 mm
10:52 14.9 °C 8.8 °C 1025.3 hPa East 1.6 km/h 9.7 km/h 67 % 0.0 mm
11:02 15.5 °C 9.2 °C 1025.3 hPa SE 1.6 km/h 11.3 km/h 66 % 0.0 mm
11:12 15.9 °C 9.3 °C 1024.9 hPa SE 3.2 km/h 11.3 km/h 65 % 0.0 mm
11:17 16.1 °C 9.5 °C 1024.9 hPa SE 3.2 km/h 11.3 km/h 65 % 0.0 mm
11:22 16.2 °C 9.4 °C 1024.9 hPa ESE 8.0 km/h 11.3 km/h 64 % 0.0 mm
11:32 16.7 °C 9.9 °C 1024.9 hPa East 4.8 km/h 16.1 km/h 64 % 0.0 mm
11:42 16.9 °C 9.1 °C 1024.9 hPa SE 8.0 km/h 14.5 km/h 60 % 0.0 mm
11:47 17.1 °C 8.5 °C 1024.9 hPa ESE 4.8 km/h 14.5 km/h 57 % 0.0 mm
11:52 17.2 °C 8.6 °C 1024.9 hPa SE 9.7 km/h 17.7 km/h 57 % 0.0 mm
12:02 17.9 °C 10.0 °C 1024.6 hPa SE 6.4 km/h 17.7 km/h 60 % 0.0 mm
12:12 17.9 °C 9.3 °C 1024.6 hPa ESE 4.8 km/h 19.3 km/h 57 % 0.0 mm
12:17 18.1 °C 10.0 °C 1024.3 hPa SE 1.6 km/h 19.3 km/h 59 % 0.0 mm
12:22 18.2 °C 9.8 °C 1024.3 hPa ESE 6.4 km/h 17.7 km/h 58 % 0.0 mm
12:32 18.6 °C 9.9 °C 1024.3 hPa SE 6.4 km/h 17.7 km/h 57 % 0.0 mm
12:37 18.7 °C 8.6 °C 1024.3 hPa SSE 9.7 km/h 17.7 km/h 52 % 0.0 mm
12:42 18.8 °C 9.0 °C 1024.3 hPa SSE 11.3 km/h 16.1 km/h 53 % 0.0 mm
12:47 19.2 °C 8.8 °C 1024.3 hPa ESE 9.7 km/h 16.1 km/h 51 % 0.0 mm
12:52 19.1 °C 9.3 °C 1023.9 hPa East 8.0 km/h 19.3 km/h 53 % 0.0 mm
13:02 19.4 °C 9.0 °C 1023.9 hPa SE 8.0 km/h 19.3 km/h 51 % 0.0 mm
13:12 19.8 °C 9.1 °C 1023.9 hPa SE 8.0 km/h 19.3 km/h 50 % 0.0 mm
13:17 19.7 °C 9.3 °C 1023.9 hPa SE 8.0 km/h 19.3 km/h 51 % 0.0 mm
13:22 19.8 °C 9.1 °C 1023.6 hPa SSW 3.2 km/h 19.3 km/h 50 % 0.0 mm
13:32 19.9 °C 8.9 °C 1023.6 hPa SSE 8.0 km/h 17.7 km/h 49 % 0.0 mm
13:42 20.3 °C 9.2 °C 1023.6 hPa SE 8.0 km/h 17.7 km/h 49 % 0.0 mm
13:47 20.1 °C 9.1 °C 1023.6 hPa SE 12.9 km/h 16.1 km/h 49 % 0.0 mm
13:52 20.4 °C 9.3 °C 1023.2 hPa SE 9.7 km/h 16.1 km/h 49 % 0.0 mm
13:57 20.8 °C 11.2 °C 1023.2 hPa SE 9.7 km/h 16.1 km/h 54 % 0.0 mm
14:02 20.8 °C 9.7 °C 1023.2 hPa SW 8.0 km/h 16.1 km/h 49 % 0.0 mm
14:12 21.1 °C 9.0 °C 1023.2 hPa SSE 8.0 km/h 16.1 km/h 46 % 0.0 mm
14:17 21.1 °C 9.0 °C 1023.2 hPa SSE 9.7 km/h 16.1 km/h 46 % 0.0 mm
14:22 21.0 °C 9.3 °C 1023.2 hPa SSE 8.0 km/h 17.7 km/h 47 % 0.0 mm
14:27 21.3 °C 8.2 °C 1023.2 hPa ESE 8.0 km/h 17.7 km/h 43 % 0.0 mm
14:32 21.3 °C 8.6 °C 1023.2 hPa SE 6.4 km/h 17.7 km/h 44 % 0.0 mm
14:37 21.6 °C 9.2 °C 1022.9 hPa SSE 4.8 km/h 16.1 km/h 45 % 0.0 mm
14:42 21.9 °C 8.8 °C 1022.9 hPa South 3.2 km/h 16.1 km/h 43 % 0.0 mm
14:47 21.9 °C 8.1 °C 1022.9 hPa SSE 6.4 km/h 16.1 km/h 41 % 0.0 mm
14:52 21.8 °C 7.6 °C 1022.9 hPa SE 6.4 km/h 14.5 km/h 40 % 0.0 mm
15:02 22.0 °C 7.4 °C 1022.6 hPa SE 3.2 km/h 14.5 km/h 39 % 0.0 mm
15:12 22.3 °C 8.0 °C 1022.2 hPa SE 3.2 km/h 14.5 km/h 40 % 0.0 mm
15:17 22.2 °C 8.3 °C 1022.2 hPa SSE 6.4 km/h 12.9 km/h 41 % 0.0 mm
15:22 22.1 °C 8.9 °C 1022.2 hPa South 4.8 km/h 12.9 km/h 43 % 0.0 mm
15:32 22.2 °C 8.3 °C 1022.2 hPa SSE 6.4 km/h 12.9 km/h 41 % 0.0 mm
15:42 22.6 °C 8.7 °C 1021.9 hPa ESE 4.8 km/h 17.7 km/h 41 % 0.0 mm
15:47 22.5 °C 8.2 °C 1021.9 hPa SE 6.4 km/h 17.7 km/h 40 % 0.0 mm
15:52 22.7 °C 8.8 °C 1021.9 hPa SE 9.7 km/h 17.7 km/h 41 % 0.0 mm
15:57 22.7 °C 9.1 °C 1021.6 hPa ESE 9.7 km/h 12.9 km/h 42 % 0.0 mm
16:02 22.6 °C 9.4 °C 1021.6 hPa East 8.0 km/h 12.9 km/h 43 % 0.0 mm
16:07 22.3 °C 9.1 °C 1021.6 hPa SSE 11.3 km/h 12.9 km/h 43 % 0.0 mm
16:17 22.8 °C 8.5 °C 1021.6 hPa SW 8.0 km/h 14.5 km/h 40 % 0.0 mm
16:22 22.7 °C 7.6 °C 1021.6 hPa East 3.2 km/h 14.5 km/h 38 % 0.0 mm
16:27 22.7 °C 8.0 °C 1021.6 hPa SSE 4.8 km/h 14.5 km/h 39 % 0.0 mm
16:32 22.8 °C 8.5 °C 1021.6 hPa East 4.8 km/h 14.5 km/h 40 % 0.0 mm
16:42 22.9 °C 9.7 °C 1021.2 hPa ESE 11.3 km/h 14.5 km/h 43 % 0.0 mm
16:47 22.6 °C 8.7 °C 1021.2 hPa SSE 4.8 km/h 14.5 km/h 41 % 0.0 mm
16:52 22.4 °C 9.9 °C 1021.2 hPa East 8.0 km/h 14.5 km/h 45 % 0.0 mm
16:57 22.4 °C 9.9 °C 1021.2 hPa East 6.4 km/h 12.9 km/h 45 % 0.0 mm
17:02 22.5 °C 8.6 °C 1021.2 hPa SE 6.4 km/h 12.9 km/h 41 % 0.0 mm
17:12 22.2 °C 8.7 °C 1020.9 hPa East 9.7 km/h 11.3 km/h 42 % 0.0 mm
17:17 22.3 °C 8.8 °C 1020.9 hPa SE 4.8 km/h 14.5 km/h 42 % 0.0 mm
17:22 22.3 °C 8.8 °C 1020.9 hPa SE 4.8 km/h 14.5 km/h 42 % 0.0 mm
17:32 22.2 °C 9.0 °C 1020.9 hPa East 4.8 km/h 12.9 km/h 43 % 0.0 mm
17:37 22.2 °C 9.0 °C 1020.5 hPa ESE 3.2 km/h 12.9 km/h 43 % 0.0 mm
17:42 22.2 °C 9.0 °C 1020.5 hPa SE 4.8 km/h 12.9 km/h 43 % 0.0 mm
17:47 22.2 °C 8.0 °C 1020.5 hPa East 3.2 km/h 8.0 km/h 40 % 0.0 mm
17:52 22.2 °C 8.7 °C 1020.5 hPa SE 3.2 km/h 8.0 km/h 42 % 0.0 mm
17:57 22.2 °C 7.6 °C 1020.5 hPa East 8.0 km/h 9.7 km/h 39 % 0.0 mm
18:02 22.0 °C 7.4 °C 1020.5 hPa ESE 4.8 km/h 11.3 km/h 39 % 0.0 mm
18:12 21.9 °C 7.7 °C 1020.5 hPa SE 4.8 km/h 11.3 km/h 40 % 0.0 mm
18:17 21.8 °C 8.0 °C 1020.5 hPa SE 3.2 km/h 19.3 km/h 41 % 0.0 mm
18:22 21.6 °C 7.8 °C 1020.5 hPa SE 4.8 km/h 19.3 km/h 41 % 0.0 mm
18:27 21.4 °C 7.6 °C 1020.2 hPa SE 3.2 km/h 19.3 km/h 41 % 0.0 mm
18:37 21.2 °C 8.1 °C 1020.2 hPa ESE 3.2 km/h 12.9 km/h 43 % 0.0 mm
18:42 21.0 °C 7.9 °C 1020.2 hPa ESE 3.2 km/h 12.9 km/h 43 % 0.0 mm
18:52 20.8 °C 8.1 °C 1020.2 hPa ESE 4.8 km/h 8.0 km/h 44 % 0.0 mm
19:02 20.7 °C 8.7 °C 1020.2 hPa SE 6.4 km/h 8.0 km/h 46 % 0.0 mm
19:12 20.4 °C 9.0 °C 1019.9 hPa ESE 3.2 km/h 8.0 km/h 48 % 0.0 mm
19:17 20.3 °C 8.9 °C 1020.2 hPa ESE 4.8 km/h 8.0 km/h 48 % 0.0 mm
19:22 20.3 °C 8.6 °C 1019.9 hPa ESE 4.8 km/h 8.0 km/h 47 % 0.0 mm
19:32 20.0 °C 8.7 °C 1019.9 hPa ESE 1.6 km/h 9.7 km/h 48 % 0.0 mm
19:42 19.2 °C 8.8 °C 1019.9 hPa East 1.6 km/h 8.0 km/h 51 % 0.0 mm
19:47 19.0 °C 8.6 °C 1019.9 hPa East 1.6 km/h 6.4 km/h 51 % 0.0 mm
19:52 19.1 °C 8.7 °C 1019.9 hPa ENE 3.2 km/h 4.8 km/h 51 % 0.0 mm
20:02 18.9 °C 8.8 °C 1019.9 hPa ESE 1.6 km/h 4.8 km/h 52 % 0.0 mm
20:12 18.5 °C 8.7 °C 1019.9 hPa Calm   4.8 km/h 53 % 0.0 mm
20:17 18.4 °C 8.6 °C 1019.9 hPa Calm   4.8 km/h 53 % 0.0 mm
20:22 18.3 °C 8.8 °C 1019.9 hPa Calm   4.8 km/h 54 % 0.0 mm
20:32 17.9 °C 8.7 °C 1019.9 hPa Calm   3.2 km/h 55 % 0.0 mm
20:42 17.5 °C 8.4 °C 1019.9 hPa Calm   1.6 km/h 55 % 0.0 mm
20:47 17.4 °C 8.3 °C 1019.9 hPa Calm   1.6 km/h 55 % 0.0 mm
20:52 17.4 °C 8.3 °C 1019.9 hPa Calm   1.6 km/h 55 % 0.0 mm
20:57 17.3 °C 8.2 °C 1019.9 hPa Calm     55 % 0.0 mm
21:02 17.1 °C 8.3 °C 1019.9 hPa Calm     56 % 0.0 mm
21:12 17.0 °C 8.2 °C 1019.9 hPa Calm     56 % 0.0 mm
21:17 17.0 °C 8.2 °C 1019.9 hPa Calm   1.6 km/h 56 % 0.0 mm
21:22 17.1 °C 8.3 °C 1019.9 hPa Calm   1.6 km/h 56 % 0.0 mm
21:27 16.8 °C 8.2 °C 1019.9 hPa WNW 1.6 km/h 1.6 km/h 57 % 0.0 mm
21:32 16.3 °C 8.0 °C 1019.9 hPa WNW 1.6 km/h 1.6 km/h 58 % 0.0 mm
21:42 16.3 °C 8.0 °C 1019.9 hPa Calm   1.6 km/h 58 % 0.0 mm
21:47 16.4 °C 8.1 °C 1019.9 hPa Calm   1.6 km/h 58 % 0.0 mm
21:52 16.4 °C 8.1 °C 1019.9 hPa Calm   1.6 km/h 58 % 0.0 mm
21:57 16.3 °C 8.0 °C 1019.9 hPa Calm   1.6 km/h 58 % 0.0 mm
22:02 16.1 °C 8.1 °C 1019.9 hPa Calm   1.6 km/h 59 % 0.0 mm
22:12 15.8 °C 8.0 °C 1019.5 hPa NNW 3.2 km/h   60 % 0.0 mm
22:17 15.9 °C 7.9 °C 1019.9 hPa NNW 3.2 km/h 4.8 km/h 59 % 0.0 mm
22:22 15.8 °C 8.0 °C 1019.9 hPa NW 3.2 km/h 4.8 km/h 60 % 0.0 mm
22:32 15.8 °C 8.0 °C 1019.5 hPa NW 1.6 km/h 4.8 km/h 60 % 0.0 mm
22:37 15.9 °C 7.9 °C 1019.5 hPa NW 3.2 km/h 4.8 km/h 59 % 0.0 mm
22:42 15.8 °C 8.0 °C 1019.5 hPa NW 1.6 km/h 4.8 km/h 60 % 0.0 mm
22:52 15.4 °C 7.9 °C 1019.5 hPa NW 1.6 km/h 3.2 km/h 61 % 0.0 mm
22:57 15.4 °C 7.9 °C 1019.5 hPa NW 1.6 km/h 3.2 km/h 61 % 0.0 mm
23:02 15.4 °C 7.9 °C 1019.5 hPa WNW 1.6 km/h 3.2 km/h 61 % 0.0 mm
23:12 15.4 °C 8.2 °C 1019.2 hPa Calm   3.2 km/h 62 % 0.0 mm
23:32 15.4 °C 8.2 °C 1019.2 hPa Calm     62 % 0.0 mm
23:42 15.1 °C 8.1 °C 1019.2 hPa Calm     63 % 0.0 mm
23:47 14.5 °C 8.0 °C 1018.8 hPa Calm     65 % 0.0 mm
23:52 14.4 °C 8.1 °C 1018.8 hPa Calm     66 % 0.0 mm
23:57 14.1 °C 8.1 °C 1018.8 hPa Calm     67 % 0.0 mm
Meteo18
Compliments of Weather Underground - 4 mb

Script developed by  Jim McMurry - jmcmurry@mwt.net Adapted for the template by  Wim van der Kuil - Leuven-Template.eu

You find our weather info also at:

European Weather Network

Weather Underground

Equipment we use:

Weather-station
Davis Vue

Weather-program
Meteohub

Weather-server
Raspberry PI 2 B+

Provider
1 and 1

Davis Vue

Meteohub

Raspberry PI 2 B+

1 and 1